Santa Barbara — 3FWW8 — position and weather

sailwx.info

Track history (hours):
 
Tides and Currents Weather Stations Pressure Air Temp Water Temp Dewpoint Dewpoint Depression Visibility Wind Speed Wind Dir Waves Ship Positions

Santa Barbara

Last reported at 2016-Feb-09 19:33 UTC. Time now 2016-Feb-13 12:59 UTC.
Position S 23°47' W 039°58'.

Length 225 m; draft 10.4 m.

Type: Ship (hazmat cat A). MMSI: 372230000.

Date/timePositionNaut miles runAvg speedWind from/ knotsBaromVisibWave heightAir tempDewpointWater temp
2016-Feb-09 19:33S 23°47' W 039°58'1312.9
2016-Feb-09 18:32S 23°59' W 040°04'  
2016-Feb-06 04:23S 34°50' W 057°25'1011.7
2016-Feb-06 03:33S 34°46' W 057°35'1111.4
2016-Feb-06 02:33S 34°43' W 057°49'3 2.4
2016-Feb-06 01:28S 34°43' W 057°52'0 0.2
2016-Feb-06 00:31S 34°43' W 057°52'4 3.9
2016-Feb-05 23:34S 34°42' W 057°56'1111.4
2016-Feb-05 22:33S 34°38' W 058°09'10 9.9
2016-Feb-05 21:33S 34°32' W 058°19'10 9.9
2016-Feb-05 20:34S 34°25' W 058°26'1010.1
2016-Feb-05 19:33S 34°17' W 058°35'10 9.9
2016-Feb-05 18:33S 34°14' W 058°46'9 9.1
2016-Feb-05 17:33S 34°09' W 058°55'7 6.5
2016-Feb-05 16:32S 34°05' W 059°01'8 8.3
2016-Feb-05 15:33S 33°59' W 059°08'7 7.0
2016-Feb-05 14:33S 33°54' W 059°14'8 7.5
2016-Feb-05 13:29S 33°47' W 059°19'6 6.7
2016-Feb-05 12:33S 33°44' W 059°25'1010.0
2016-Feb-05 11:34S 33°42' W 059°37'1111.0
2016-Feb-05 10:33S 33°36' W 059°48'1110.7
2016-Feb-05 09:33S 33°28' W 059°57'5410.1
2016-Feb-05 04:11S 32°49' W 060°42'710.5
2016-Feb-05 03:33S 32°42' W 060°42'  
Track history (hours):
 
Tides and Currents Weather Stations Pressure Air Temp Water Temp Dewpoint Dewpoint Depression Visibility Wind Speed Wind Dir Waves Ship Positions

Santa Barbara

Last reported at 2016-Feb-09 19:33 UTC. Time now 2016-Feb-13 12:59 UTC.
Position S 23°47' W 039°58'.

Length 225 m; draft 10.4 m.

Type: Ship (hazmat cat A). MMSI: 372230000.

Date/timePositionNaut miles runAvg speedWind from/ knotsBaromVisibWave heightAir tempDewpointWater temp
2016-Feb-09 19:33S 23°47' W 039°58'1312.9
2016-Feb-09 18:32S 23°59' W 040°04'  
2016-Feb-06 04:23S 34°50' W 057°25'1011.7
2016-Feb-06 03:33S 34°46' W 057°35'1111.4
2016-Feb-06 02:33S 34°43' W 057°49'3 2.4
2016-Feb-06 01:28S 34°43' W 057°52'0 0.2
2016-Feb-06 00:31S 34°43' W 057°52'4 3.9
2016-Feb-05 23:34S 34°42' W 057°56'1111.4
2016-Feb-05 22:33S 34°38' W 058°09'10 9.9
2016-Feb-05 21:33S 34°32' W 058°19'10 9.9
2016-Feb-05 20:34S 34°25' W 058°26'1010.1
2016-Feb-05 19:33S 34°17' W 058°35'10 9.9
2016-Feb-05 18:33S 34°14' W 058°46'9 9.1
2016-Feb-05 17:33S 34°09' W 058°55'7 6.5
2016-Feb-05 16:32S 34°05' W 059°01'8 8.3
2016-Feb-05 15:33S 33°59' W 059°08'7 7.0
2016-Feb-05 14:33S 33°54' W 059°14'8 7.5
2016-Feb-05 13:29S 33°47' W 059°19'6 6.7
2016-Feb-05 12:33S 33°44' W 059°25'1010.0
2016-Feb-05 11:34S 33°42' W 059°37'1111.0
2016-Feb-05 10:33S 33°36' W 059°48'1110.7
2016-Feb-05 09:33S 33°28' W 059°57'5410.1
2016-Feb-05 04:11S 32°49' W 060°42'710.5
2016-Feb-05 03:33S 32°42' W 060°42'  

Dump ship's entire track history